Time;durP1;ratioP1;P1;durP2;ratioP2;P2;SDS_P1;SDS_P2;PMS_P1;PMS_P2;Temp;Humidity;BMP_temperature;BMP_pressure;BME280_temperature;BME280_humidity;BME280_pressure;Samples;Min_cycle;Max_cycle;Signal;HPM_P1;HPM_P2
2023/07/15 00:01:23;;;;;;;8.88;3.90;;;18.70;99.90;;;;;;6255202;22;20018;-81
2023/07/15 00:03:50;;;;;;;10.23;4.38;;;18.70;99.90;;;;;;6254842;22;20386;-81
2023/07/15 00:06:17;;;;;;;10.48;4.07;;;18.60;99.90;;;;;;6254103;22;20323;-81
2023/07/15 00:08:43;;;;;;;10.00;3.95;;;18.70;99.90;;;;;;6254558;22;20010;-81
2023/07/15 00:11:18;;;;;;;9.95;4.30;;;18.60;99.90;;;;;;6255260;22;20453;-81
2023/07/15 00:13:43;;;;;;;8.77;4.28;;;18.50;99.90;;;;;;6150609;23;20014;-81
2023/07/15 00:16:09;;;;;;;9.05;4.10;;;18.50;99.90;;;;;;6254798;22;20449;-81
2023/07/15 00:18:34;;;;;;;11.90;4.25;;;18.50;99.90;;;;;;6254710;22;20018;-81
2023/07/15 00:21:09;;;;;;;9.32;4.00;;;18.40;99.90;;;;;;6150915;23;20018;-81
2023/07/15 00:23:34;;;;;;;9.35;4.15;;;18.40;99.90;;;;;;6254588;22;20056;-81
2023/07/15 00:26:00;;;;;;;10.07;3.97;;;18.40;99.90;;;;;;6253540;22;20021;-81
2023/07/15 00:28:26;;;;;;;10.68;4.32;;;18.30;99.90;;;;;;6151241;23;20024;-81
2023/07/15 00:30:55;;;;;;;11.63;3.95;;;18.30;99.90;;;;;;6151690;23;20018;-81
2023/07/15 00:33:21;;;;;;;9.32;4.10;;;18.30;99.90;;;;;;6152628;23;20009;-81
2023/07/15 00:35:49;;;;;;;8.77;3.78;;;18.30;99.90;;;;;;6152525;23;20472;-81
2023/07/15 00:38:15;;;;;;;13.35;4.03;;;18.30;99.90;;;;;;6152556;22;20013;-81
2023/07/15 00:40:47;;;;;;;9.77;4.53;;;18.30;99.90;;;;;;6150546;23;20022;-81
2023/07/15 00:43:50;;;;;;;10.52;4.10;;;18.30;99.90;;;;;;6151519;22;20093;-80
2023/07/15 00:46:23;;;;;;;9.38;4.15;;;18.30;99.90;;;;;;6254723;22;20024;-80
2023/07/15 00:48:54;;;;;;;;;;;18.30;99.90;;;;;;6151085;23;20509;-81
2023/07/15 00:51:21;;;;;;;10.48;4.20;;;18.30;99.90;;;;;;6254340;22;19952;-81
2023/07/15 00:53:48;;;;;;;12.52;4.38;;;18.20;99.90;;;;;;6253995;22;20022;-81
2023/07/15 00:56:14;;;;;;;10.20;4.40;;;18.20;99.90;;;;;;6253422;22;20021;-81
2023/07/15 00:58:40;;;;;;;9.52;3.83;;;18.20;99.90;;;;;;6150978;23;20021;-80
2023/07/15 01:01:07;;;;;;;9.18;4.20;;;18.20;99.90;;;;;;6253986;22;20021;-81
2023/07/15 01:03:33;;;;;;;9.82;3.65;;;18.20;99.90;;;;;;6253679;22;20039;-80
2023/07/15 01:05:59;;;;;;;9.85;4.05;;;18.30;99.90;;;;;;6254020;22;20034;-81
2023/07/15 01:08:24;;;;;;;9.80;4.07;;;18.20;99.90;;;;;;6253979;22;20017;-81
2023/07/15 01:10:50;;;;;;;9.23;4.05;;;18.40;99.90;;;;;;6151354;23;20017;-81
2023/07/15 01:13:16;;;;;;;10.68;3.95;;;18.50;99.90;;;;;;6151527;23;20385;-80
2023/07/15 01:15:42;;;;;;;10.32;3.85;;;18.70;99.90;;;;;;6252930;22;20347;-81
2023/07/15 01:18:08;;;;;;;10.68;3.88;;;18.50;99.90;;;;;;6254041;22;20074;-81
2023/07/15 01:20:34;;;;;;;10.05;4.10;;;18.50;99.90;;;;;;6150669;23;20021;-81
2023/07/15 01:23:00;;;;;;;11.73;3.88;;;18.50;99.90;;;;;;6253630;22;20018;-81
2023/07/15 01:25:25;;;;;;;10.77;3.75;;;18.60;99.90;;;;;;6157430;22;20028;-80
2023/07/15 01:27:51;;;;;;;9.55;3.95;;;18.70;99.90;;;;;;6253627;22;20018;-80
2023/07/15 01:30:16;;;;;;;10.05;3.72;;;18.70;99.90;;;;;;6253327;22;20040;-81
2023/07/15 01:32:42;;;;;;;9.18;3.65;;;18.80;99.90;;;;;;6150918;23;20062;-81
2023/07/15 01:35:08;;;;;;;8.80;3.60;;;18.90;99.90;;;;;;6254006;22;20397;-81
2023/07/15 01:37:34;;;;;;;9.63;3.80;;;19.00;99.90;;;;;;6151308;23;20092;-81
2023/07/15 01:39:59;;;;;;;10.13;3.50;;;19.10;99.90;;;;;;6253566;22;20057;-81
2023/07/15 01:42:25;;;;;;;10.23;3.53;;;19.10;99.90;;;;;;6151821;22;20014;-81
2023/07/15 01:44:50;;;;;;;10.40;3.38;;;19.10;99.90;;;;;;6253025;22;20412;-80
2023/07/15 01:47:16;;;;;;;9.65;3.75;;;19.20;99.90;;;;;;6253346;22;20104;-81
2023/07/15 01:49:42;;;;;;;9.73;3.70;;;19.20;99.90;;;;;;6150655;23;20454;-81
2023/07/15 01:52:08;;;;;;;8.85;3.38;;;19.30;99.90;;;;;;6252983;22;20083;-81
2023/07/15 01:54:34;;;;;;;10.85;3.53;;;19.30;99.90;;;;;;6253552;22;20025;-80
2023/07/15 01:57:00;;;;;;;10.90;3.90;;;19.40;99.90;;;;;;6253640;22;20025;-81
2023/07/15 01:59:25;;;;;;;10.15;3.88;;;19.30;99.90;;;;;;6252943;22;20346;-80
2023/07/15 02:01:54;;;;;;;10.07;3.75;;;19.40;99.90;;;;;;6252235;22;20067;-80
2023/07/15 02:04:20;;;;;;;10.45;3.95;;;19.40;99.90;;;;;;6252896;22;20081;-81
2023/07/15 02:06:46;;;;;;;9.27;3.50;;;19.30;99.90;;;;;;6252473;22;20100;-81
2023/07/15 02:09:11;;;;;;;11.00;3.58;;;19.30;99.90;;;;;;6150498;23;20018;-80
2023/07/15 02:11:37;;;;;;;9.77;3.70;;;19.30;99.90;;;;;;6251977;22;20096;-81
2023/07/15 02:14:02;;;;;;;8.57;3.47;;;19.20;99.90;;;;;;6150513;23;20502;-81
2023/07/15 02:16:28;;;;;;;8.43;3.40;;;19.10;99.90;;;;;;6253585;22;20045;-81
2023/07/15 02:18:54;;;;;;;8.52;3.50;;;19.10;99.90;;;;;;6252455;22;20013;-81
2023/07/15 02:21:19;;;;;;;11.48;3.67;;;19.00;99.90;;;;;;6253722;22;20025;-81
2023/07/15 02:23:45;;;;;;;8.88;3.63;;;19.00;99.90;;;;;;6253001;22;20013;-81
2023/07/15 02:26:11;;;;;;;10.48;3.90;;;18.90;99.90;;;;;;6150241;22;20021;-81
2023/07/15 02:28:37;;;;;;;7.72;3.33;;;18.90;99.90;;;;;;6150232;23;20437;-81
2023/07/15 02:31:04;;;;;;;9.73;3.60;;;18.90;99.90;;;;;;6151081;23;20318;-81
2023/07/15 02:33:30;;;;;;;8.45;3.55;;;18.90;99.90;;;;;;6252304;22;20018;-81
2023/07/15 02:35:55;;;;;;;9.32;3.40;;;18.90;99.90;;;;;;6253550;22;20097;-81
2023/07/15 02:38:21;;;;;;;9.02;3.40;;;18.90;99.90;;;;;;6253223;22;20021;-81
2023/07/15 02:40:48;;;;;;;9.35;3.30;;;18.90;99.90;;;;;;6150027;23;20070;-81
2023/07/15 02:43:17;;;;;;;10.13;3.70;;;18.90;99.90;;;;;;6253556;22;20037;-80
2023/07/15 02:45:42;;;;;;;9.07;3.20;;;19.00;99.90;;;;;;6150649;23;20013;-80
2023/07/15 02:48:08;;;;;;;10.10;3.60;;;18.90;99.90;;;;;;6150100;23;20359;-81
2023/07/15 02:50:33;;;;;;;8.00;3.35;;;18.90;99.90;;;;;;6253195;22;20025;-81
2023/07/15 02:52:59;;;;;;;9.05;3.85;;;18.80;99.90;;;;;;6151240;23;20017;-81
2023/07/15 02:55:25;;;;;;;11.18;3.35;;;18.80;99.90;;;;;;6252421;22;20476;-81
2023/07/15 02:57:51;;;;;;;8.50;3.33;;;18.80;99.90;;;;;;6150533;23;20048;-81
2023/07/15 03:00:16;;;;;;;9.73;3.45;;;18.80;99.90;;;;;;6150956;23;20345;-81
2023/07/15 03:02:47;;;;;;;9.52;3.47;;;18.80;99.90;;;;;;6149986;23;20460;-81
2023/07/15 03:05:16;;;;;;;9.68;3.50;;;18.70;99.90;;;;;;6151153;23;20022;-81
2023/07/15 03:07:44;;;;;;;8.18;3.40;;;18.70;99.90;;;;;;6149234;23;20056;-80
2023/07/15 03:10:12;;;;;;;9.52;3.50;;;18.70;99.90;;;;;;6151130;22;20041;-81
2023/07/15 03:12:38;;;;;;;8.68;3.50;;;18.60;99.90;;;;;;6252698;22;20022;-80
2023/07/15 03:15:05;;;;;;;10.35;3.40;;;18.70;99.90;;;;;;6252324;22;20014;-81
2023/07/15 03:17:35;;;;;;;9.85;3.42;;;18.60;99.90;;;;;;6253009;22;20014;-81
2023/07/15 03:20:13;;;;;;;8.25;3.20;;;18.50;99.90;;;;;;6150634;23;20032;-81
2023/07/15 03:22:39;;;;;;;9.13;3.40;;;18.50;99.90;;;;;;6251796;22;20024;-80
2023/07/15 03:25:06;;;;;;;9.55;3.60;;;18.50;99.90;;;;;;6252944;22;20014;-81
2023/07/15 03:27:31;;;;;;;8.35;3.33;;;18.50;99.90;;;;;;6253835;22;20021;-81
2023/07/15 03:29:57;;;;;;;8.65;3.60;;;18.50;99.90;;;;;;6254038;22;20025;-81
2023/07/15 03:32:23;;;;;;;9.80;3.35;;;18.50;99.90;;;;;;6255148;22;20082;-81
2023/07/15 03:34:49;;;;;;;12.65;3.90;;;18.50;99.90;;;;;;6152007;22;20503;-81
2023/07/15 03:37:15;;;;;;;8.63;3.60;;;18.30;99.90;;;;;;6151169;23;20017;-81
2023/07/15 03:39:40;;;;;;;8.18;3.70;;;18.40;99.90;;;;;;6254767;22;20033;-81
2023/07/15 03:42:06;;;;;;;8.30;3.38;;;18.30;99.90;;;;;;6254848;22;20342;-81
2023/07/15 03:44:32;;;;;;;8.80;3.50;;;18.30;99.90;;;;;;6254255;22;20055;-81
2023/07/15 03:46:57;;;;;;;11.15;3.40;;;18.30;99.90;;;;;;6255086;22;20021;-81
2023/07/15 03:49:24;;;;;;;12.45;3.83;;;18.30;99.90;;;;;;6151769;23;20022;-81
2023/07/15 03:51:50;;;;;;;9.60;3.30;;;18.30;99.90;;;;;;6150307;23;20021;-80
2023/07/15 03:54:16;;;;;;;9.32;3.72;;;18.20;99.90;;;;;;6254916;22;20377;-81
2023/07/15 03:56:41;;;;;;;8.95;3.20;;;18.10;99.90;;;;;;6151290;23;20345;-80
2023/07/15 03:59:07;;;;;;;11.23;3.67;;;18.20;99.90;;;;;;6254087;22;20014;-81
2023/07/15 04:01:35;;;;;;;9.23;3.40;;;18.20;99.90;;;;;;6151051;23;20014;-80
2023/07/15 04:04:05;;;;;;;7.22;3.30;;;18.10;99.90;;;;;;6149470;23;20014;-81
2023/07/15 04:06:34;;;;;;;8.68;3.30;;;18.30;99.90;;;;;;6254297;22;20125;-81
2023/07/15 04:09:00;;;;;;;9.35;3.70;;;18.10;99.90;;;;;;6254017;22;20028;-81
2023/07/15 04:11:26;;;;;;;7.90;3.15;;;18.20;99.90;;;;;;6150678;23;20084;-81
2023/07/15 04:13:51;;;;;;;8.75;3.28;;;18.10;99.90;;;;;;6253973;22;20384;-80
2023/07/15 04:16:17;;;;;;;8.35;3.47;;;18.00;99.90;;;;;;6255099;22;20018;-81
2023/07/15 04:18:42;;;;;;;9.50;3.58;;;18.00;99.90;;;;;;6149785;23;20018;-81
2023/07/15 04:21:08;;;;;;;10.60;3.80;;;18.00;99.90;;;;;;6254796;22;20017;-81
2023/07/15 04:23:34;;;;;;;7.90;3.40;;;18.20;99.90;;;;;;6151755;22;20080;-81
2023/07/15 04:26:00;;;;;;;9.20;3.55;;;17.90;99.90;;;;;;6253431;22;20078;-81
2023/07/15 04:28:26;;;;;;;9.13;3.65;;;17.90;99.90;;;;;;6254064;22;20083;-81
2023/07/15 04:30:51;;;;;;;9.70;3.50;;;17.90;99.90;;;;;;6254124;22;20433;-81
2023/07/15 04:33:17;;;;;;;8.60;3.33;;;18.00;99.90;;;;;;6150656;23;20018;-80
2023/07/15 04:35:44;;;;;;;9.65;3.97;;;17.90;99.90;;;;;;6254021;22;20017;-81
2023/07/15 04:38:10;;;;;;;8.32;3.30;;;18.00;99.90;;;;;;6151172;23;20014;-81
2023/07/15 04:40:36;;;;;;;8.32;3.40;;;18.00;99.90;;;;;;6150381;23;20018;-81
2023/07/15 04:43:02;;;;;;;8.48;3.28;;;18.00;99.90;;;;;;6255937;22;20014;-82
2023/07/15 04:45:29;;;;;;;8.00;3.40;;;18.10;99.90;;;;;;6262323;22;20022;-80
2023/07/15 04:47:55;;;;;;;8.40;3.30;;;18.10;99.90;;;;;;6153367;23;20472;-80
2023/07/15 04:50:21;;;;;;;9.95;3.40;;;18.10;99.90;;;;;;6255048;22;20013;-81
2023/07/15 04:52:47;;;;;;;8.82;3.30;;;18.20;99.90;;;;;;6253889;22;20155;-80
2023/07/15 04:55:13;;;;;;;9.95;3.08;;;18.20;99.90;;;;;;6253561;22;20021;-81
2023/07/15 04:57:39;;;;;;;9.20;3.53;;;18.40;99.90;;;;;;6253823;22;20067;-81
2023/07/15 05:00:09;;;;;;;9.93;3.60;;;18.40;99.90;;;;;;6253670;22;20017;-81
2023/07/15 05:02:34;;;;;;;8.32;3.38;;;18.50;99.90;;;;;;6253898;22;20025;-81
2023/07/15 05:05:00;;;;;;;9.18;3.20;;;18.60;99.90;;;;;;6253937;22;20022;-81
2023/07/15 05:07:25;;;;;;;8.05;3.30;;;18.70;99.90;;;;;;6252831;22;20078;-81
2023/07/15 05:09:51;;;;;;;10.57;3.72;;;18.80;99.90;;;;;;6151036;23;20093;-81
2023/07/15 05:12:17;;;;;;;7.68;3.40;;;18.90;99.90;;;;;;6151424;23;20053;-81
2023/07/15 05:14:43;;;;;;;9.15;3.50;;;18.90;99.90;;;;;;6150083;23;20041;-81
2023/07/15 05:17:08;;;;;;;8.40;3.38;;;19.00;99.90;;;;;;6254519;22;20033;-81
2023/07/15 05:19:35;;;;;;;9.05;3.75;;;19.10;99.90;;;;;;6253477;22;20023;-81
2023/07/15 05:22:01;;;;;;;7.88;3.25;;;19.10;99.90;;;;;;6150084;23;20022;-81
2023/07/15 05:24:28;;;;;;;8.80;3.40;;;19.30;99.90;;;;;;6254033;22;20088;-81
2023/07/15 05:26:55;;;;;;;9.32;3.45;;;19.40;99.90;;;;;;6254011;22;20088;-81
2023/07/15 05:29:21;;;;;;;8.85;3.38;;;19.30;99.90;;;;;;6252863;22;20497;-82
2023/07/15 05:31:47;;;;;;;10.30;3.55;;;19.30;99.90;;;;;;6253368;22;20017;-82
2023/07/15 05:34:12;;;;;;;9.05;3.30;;;19.40;99.90;;;;;;6151581;23;20020;-83
2023/07/15 05:36:38;;;;;;;8.35;3.25;;;19.40;99.90;;;;;;6252640;22;20018;-82
2023/07/15 05:39:03;;;;;;;8.63;3.17;;;19.50;99.90;;;;;;6254010;22;20029;-82
2023/07/15 05:41:29;;;;;;;9.30;3.40;;;19.50;99.90;;;;;;6253694;22;20013;-82
2023/07/15 05:43:55;;;;;;;9.40;3.40;;;19.60;99.90;;;;;;6150359;23;20021;-82
2023/07/15 05:46:20;;;;;;;9.18;3.20;;;19.80;99.90;;;;;;6253970;22;20013;-82
2023/07/15 05:48:46;;;;;;;9.88;3.80;;;19.80;99.90;;;;;;6253321;22;20018;-82
2023/07/15 05:51:12;;;;;;;8.30;3.00;;;19.90;99.90;;;;;;6252817;22;20047;-82
2023/07/15 05:53:38;;;;;;;7.13;3.05;;;20.00;99.90;;;;;;6253647;22;20040;-82
2023/07/15 05:58:31;;;;;;;9.02;3.00;;;20.20;99.90;;;;;;6244470;23;20024;-80
2023/07/15 06:00:57;;;;;;;8.57;3.03;;;20.40;99.90;;;;;;6219048;23;20030;-79
2023/07/15 06:03:23;;;;;;;8.70;3.00;;;20.50;99.90;;;;;;6217700;23;20079;-77
2023/07/15 06:05:48;;;;;;;9.48;3.10;;;20.60;99.90;;;;;;6245218;23;20028;-79
2023/07/15 06:08:14;;;;;;;7.53;3.00;;;20.70;99.90;;;;;;6245476;23;20379;-78
2023/07/15 06:10:42;;;;;;;8.25;2.78;;;20.90;99.90;;;;;;6217473;23;20019;-79
2023/07/15 06:13:15;;;;;;;8.77;3.40;;;20.90;99.90;;;;;;6218515;23;20016;-79
2023/07/15 06:15:42;;;;;;;8.00;3.05;;;21.00;99.90;;;;;;6245629;23;20099;-79
2023/07/15 06:18:08;;;;;;;9.20;2.78;;;21.20;99.90;;;;;;6244609;23;20016;-78
2023/07/15 06:20:38;;;;;;;8.05;3.15;;;21.20;99.90;;;;;;6245525;23;20012;-79
2023/07/15 06:23:04;;;;;;;8.18;3.13;;;21.40;99.90;;;;;;6218816;23;20432;-78
2023/07/15 06:25:29;;;;;;;8.70;3.25;;;21.50;99.90;;;;;;6217390;23;20024;-79
2023/07/15 06:27:55;;;;;;;12.65;3.50;;;21.60;99.90;;;;;;6217682;23;20016;-80
2023/07/15 06:30:20;;;;;;;7.43;3.13;;;21.60;99.90;;;;;;6218663;23;20008;-79
2023/07/15 06:32:46;;;;;;;10.57;3.10;;;21.80;99.90;;;;;;6217598;23;20030;-79
2023/07/15 06:35:12;;;;;;;8.15;3.20;;;21.90;99.90;;;;;;6218545;23;20409;-79
2023/07/15 06:37:38;;;;;;;9.52;3.17;;;21.90;99.90;;;;;;6218287;23;20074;-79
2023/07/15 06:40:04;;;;;;;8.25;3.10;;;22.00;99.90;;;;;;6244460;23;20043;-79
2023/07/15 06:42:30;;;;;;;7.40;3.10;;;22.00;99.90;;;;;;6245074;23;20091;-79
2023/07/15 06:44:56;;;;;;;9.88;3.47;;;22.10;99.90;;;;;;6218564;23;20344;-79
2023/07/15 06:47:21;;;;;;;8.73;3.30;;;22.20;99.90;;;;;;6217613;23;20046;-79
2023/07/15 06:49:48;;;;;;;9.70;3.20;;;22.30;99.90;;;;;;6218267;23;20087;-79
2023/07/15 06:52:14;;;;;;;9.13;3.33;;;22.40;99.90;;;;;;6245440;23;20455;-79
2023/07/15 06:54:39;;;;;;;9.00;3.22;;;22.50;99.90;;;;;;6243701;23;20023;-79
2023/07/15 06:57:05;;;;;;;9.40;3.17;;;22.50;99.90;;;;;;6217659;23;20453;-80
2023/07/15 06:59:31;;;;;;;8.65;3.67;;;22.60;99.90;;;;;;6234331;22;20016;-80
2023/07/15 07:02:31;;;;;;;9.52;3.42;;;22.70;99.90;;;;;;6243367;23;20383;-80
2023/07/15 07:04:57;;;;;;;9.30;3.30;;;22.90;99.90;;;;;;6243129;23;20016;-79
2023/07/15 07:07:23;;;;;;;9.80;3.17;;;23.00;99.90;;;;;;6242396;23;20013;-79
2023/07/15 07:09:51;;;;;;;10.30;3.20;;;23.10;99.90;;;;;;6243355;22;20024;-79
2023/07/15 07:12:18;;;;;;;9.77;3.22;;;23.20;99.90;;;;;;6244970;23;20008;-79
2023/07/15 07:14:43;;;;;;;7.90;3.10;;;23.40;99.90;;;;;;6241886;23;20479;-79
2023/07/15 07:17:09;;;;;;;9.18;3.50;;;23.50;99.90;;;;;;6243407;23;20016;-79
2023/07/15 07:19:35;;;;;;;9.77;3.60;;;23.60;99.90;;;;;;6244625;23;20016;-79
2023/07/15 07:22:00;;;;;;;8.75;3.20;;;23.70;99.90;;;;;;6244183;23;20016;-79
2023/07/15 07:24:26;;;;;;;9.20;3.15;;;23.90;99.90;;;;;;6244987;23;20020;-79
2023/07/15 07:26:51;;;;;;;8.18;3.10;;;24.00;99.90;;;;;;6242603;23;20078;-79
2023/07/15 07:29:17;;;;;;;8.82;2.90;;;24.00;99.90;;;;;;6243813;23;20019;-79
2023/07/15 07:31:43;;;;;;;9.70;3.50;;;24.10;99.90;;;;;;6244755;23;20091;-79
2023/07/15 07:34:08;;;;;;;7.85;2.97;;;24.10;99.90;;;;;;6245069;22;20147;-79
2023/07/15 07:36:34;;;;;;;7.90;3.10;;;24.10;99.90;;;;;;6243726;23;20157;-79
2023/07/15 07:38:59;;;;;;;8.45;3.03;;;24.10;99.90;;;;;;6245010;23;20031;-80
2023/07/15 07:41:25;;;;;;;7.88;2.55;;;24.20;99.90;;;;;;6243173;23;20012;-79
2023/07/15 07:43:51;;;;;;;8.90;2.72;;;24.20;99.90;;;;;;6241596;23;20103;-78
2023/07/15 07:46:16;;;;;;;8.98;2.75;;;24.30;99.90;;;;;;6244451;23;20017;-79
2023/07/15 07:48:42;;;;;;;9.57;2.80;;;24.40;99.90;;;;;;6243106;23;20392;-79
2023/07/15 07:51:08;;;;;;;9.82;2.70;;;24.50;99.90;;;;;;6243844;23;20028;-78
2023/07/15 07:53:36;;;;;;;7.53;2.60;;;24.60;99.90;;;;;;6246210;23;20023;-78
2023/07/15 07:56:02;;;;;;;9.20;2.80;;;24.60;99.90;;;;;;6244196;23;20040;-79
2023/07/15 07:58:27;;;;;;;7.38;2.70;;;24.80;99.90;;;;;;6210850;23;20026;-80
2023/07/15 08:00:53;;;;;;;9.35;2.80;;;24.90;99.90;;;;;;6222509;23;20347;-79
2023/07/15 08:03:19;;;;;;;7.65;2.75;;;24.90;99.90;;;;;;6119989;23;20022;-79
2023/07/15 08:05:46;;;;;;;8.73;2.50;;;24.90;99.90;;;;;;6222042;23;20438;-79
2023/07/15 08:08:13;;;;;;;8.48;2.53;;;24.80;99.90;;;;;;6120511;23;20402;-80
2023/07/15 08:10:39;;;;;;;6.85;2.30;;;24.80;99.90;;;;;;6221198;23;20018;-79
2023/07/15 08:13:06;;;;;;;7.78;2.67;;;24.90;99.90;;;;;;6121368;23;20022;-79
2023/07/15 08:15:36;;;;;;;7.55;2.58;;;24.90;99.90;;;;;;6223880;23;20014;-80
2023/07/15 08:18:03;;;;;;;6.95;2.25;;;25.00;99.90;;;;;;6223142;23;20022;-80
2023/07/15 08:20:29;;;;;;;7.28;2.58;;;25.20;99.90;;;;;;6121874;23;20024;-80
2023/07/15 08:22:55;;;;;;;9.07;2.70;;;25.30;99.90;;;;;;6223654;23;20101;-80
2023/07/15 08:25:21;;;;;;;9.32;2.72;;;25.30;99.90;;;;;;6222823;23;20056;-80
2023/07/15 08:27:47;;;;;;;9.02;2.65;;;25.40;99.90;;;;;;6222018;23;20017;-81
2023/07/15 08:30:13;;;;;;;7.43;2.40;;;25.50;99.90;;;;;;6223402;23;20959;-80
2023/07/15 08:32:38;;;;;;;6.93;2.58;;;25.50;99.90;;;;;;6120655;23;20014;-79
2023/07/15 08:35:05;;;;;;;7.97;2.67;;;25.40;99.90;;;;;;6121675;23;20426;-80
2023/07/15 08:37:31;;;;;;;8.23;2.70;;;25.40;99.90;;;;;;6120702;23;20450;-81
2023/07/15 08:39:57;;;;;;;7.55;2.50;;;25.40;99.90;;;;;;6120403;23;20026;-80
2023/07/15 08:42:23;;;;;;;9.35;2.80;;;25.40;99.90;;;;;;6122087;23;20046;-82
2023/07/15 08:44:50;;;;;;;10.32;3.10;;;25.50;99.90;;;;;;6223930;23;20453;-80
2023/07/15 08:47:21;;;;;;;9.02;2.90;;;25.50;99.90;;;;;;6120922;23;20342;-81
2023/07/15 08:49:51;;;;;;;8.63;2.90;;;25.50;99.90;;;;;;6223269;23;20029;-81
2023/07/15 08:52:23;;;;;;;8.55;2.60;;;25.60;99.90;;;;;;6223056;23;20442;-81
2023/07/15 08:54:51;;;;;;;8.00;2.92;;;25.90;99.90;;;;;;6223119;23;20048;-80
2023/07/15 08:57:18;;;;;;;8.52;2.80;;;26.10;99.90;;;;;;6121868;23;20009;-81
2023/07/15 08:59:54;;;;;;;8.07;2.50;;;26.30;99.90;;;;;;6222676;23;20024;-80
2023/07/15 09:02:20;;;;;;;8.10;3.00;;;26.10;99.90;;;;;;6121731;23;20025;-81
2023/07/15 09:04:46;;;;;;;8.48;2.80;;;25.90;99.90;;;;;;6223672;23;20022;-80
2023/07/15 09:07:11;;;;;;;8.18;3.00;;;25.90;99.90;;;;;;6222825;23;20057;-81
2023/07/15 09:09:38;;;;;;;7.18;2.60;;;25.80;99.90;;;;;;6223653;23;20064;-80
2023/07/15 09:12:06;;;;;;;8.98;2.80;;;26.00;99.90;;;;;;6223505;23;20085;-81
2023/07/15 09:14:37;;;;;;;8.00;2.65;;;26.20;99.90;;;;;;6221889;23;20050;-80
2023/07/15 09:17:03;;;;;;;9.70;2.50;;;26.30;99.90;;;;;;6223745;23;20014;-81
2023/07/15 09:19:32;;;;;;;8.43;2.83;;;26.30;99.90;;;;;;6223622;22;20017;-81
2023/07/15 09:25:55;;;;;;;8.35;2.47;;;26.40;99.90;;;;;;6121042;23;20017;-81
2023/07/15 09:28:33;;;;;;;8.05;2.63;;;26.50;99.90;;;;;;6222488;23;20022;-81
2023/07/15 09:30:59;;;;;;;7.25;2.50;;;26.50;99.80;;;;;;6121946;23;20022;-82
2023/07/15 09:36:12;;;;;;;9.88;2.60;;;26.50;99.90;;;;;;6147021;22;20033;-82
2023/07/15 09:38:39;;;;;;;7.95;2.47;;;26.60;99.90;;;;;;6253213;22;20010;-81
2023/07/15 09:41:23;;;;;;;8.02;2.63;;;27.00;99.90;;;;;;6252926;22;20403;-81
2023/07/15 09:44:06;;;;;;;8.48;2.60;;;26.90;99.30;;;;;;6250797;22;20159;-82
2023/07/15 09:46:46;;;;;;;10.20;2.70;;;26.60;99.50;;;;;;6150922;23;20010;-80
2023/07/15 09:49:12;;;;;;;7.95;2.50;;;26.60;99.90;;;;;;6150420;22;20022;-81
2023/07/15 09:51:58;;;;;;;6.90;2.38;;;26.50;99.90;;;;;;6253034;22;20460;-81
2023/07/15 09:54:26;;;;;;;8.20;2.60;;;26.60;99.90;;;;;;6151498;23;20014;-80
2023/07/15 09:57:13;;;;;;;12.18;2.58;;;26.50;99.90;;;;;;6251926;22;20016;-81
2023/07/15 09:59:47;;;;;;;7.30;2.60;;;26.50;99.90;;;;;;6253027;22;20022;-80
2023/07/15 10:02:35;;;;;;;7.45;2.30;;;26.60;99.60;;;;;;6150452;23;20017;-80
2023/07/15 10:05:04;;;;;;;9.25;2.50;;;26.80;99.90;;;;;;6151117;23;20013;-80
2023/07/15 10:07:31;;;;;;;6.50;2.33;;;27.10;99.30;;;;;;6253525;22;20021;-80
2023/07/15 10:10:00;;;;;;;6.95;2.38;;;27.10;99.80;;;;;;6150622;23;20009;-80
2023/07/15 10:12:28;;;;;;;9.27;2.60;;;26.80;99.20;;;;;;6253808;22;20017;-80
2023/07/15 10:14:55;;;;;;;7.55;2.28;;;26.80;99.80;;;;;;6253892;22;20497;-80
2023/07/15 10:17:20;;;;;;;8.65;2.78;;;26.60;99.80;;;;;;6150436;23;20018;-80
2023/07/15 10:19:51;;;;;;;9.05;2.90;;;26.50;99.90;;;;;;6253024;22;20051;-80
2023/07/15 10:22:18;;;;;;;9.10;2.30;;;26.40;99.90;;;;;;6253902;22;20013;-80
2023/07/15 10:24:55;;;;;;;6.90;2.08;;;26.30;99.90;;;;;;6252390;22;20075;-80
2023/07/15 10:27:21;;;;;;;6.07;2.15;;;26.30;99.90;;;;;;6151468;23;20039;-80
2023/07/15 10:30:17;;;;;;;6.82;2.45;;;26.30;99.90;;;;;;6151219;22;20153;-81
2023/07/15 10:32:58;;;;;;;8.13;2.60;;;26.30;99.90;;;;;;6252311;22;20321;-81
2023/07/15 10:35:30;;;;;;;8.88;2.60;;;26.40;99.90;;;;;;6252336;22;20021;-81
2023/07/15 10:38:21;;;;;;;6.97;2.38;;;26.40;99.90;;;;;;6252861;22;20086;-81
2023/07/15 10:40:47;;;;;;;6.72;2.47;;;26.50;99.90;;;;;;6252704;22;20024;-80
2023/07/15 10:43:19;;;;;;;7.40;2.50;;;26.40;99.90;;;;;;6253915;22;20088;-80
2023/07/15 10:45:55;;;;;;;7.68;2.20;;;26.40;99.90;;;;;;6149537;23;20402;-80
2023/07/15 10:48:22;;;;;;;7.35;2.50;;;26.20;99.90;;;;;;6151173;23;20018;-80
2023/07/15 10:50:52;;;;;;;8.10;2.60;;;26.10;99.90;;;;;;6253015;22;20088;-80
2023/07/15 10:53:29;;;;;;;7.45;2.72;;;25.80;99.90;;;;;;6252371;22;20017;-81
2023/07/15 10:56:09;;;;;;;6.47;2.35;;;25.70;99.90;;;;;;6253820;22;20075;-80
2023/07/15 10:58:36;;;;;;;7.13;2.42;;;25.80;99.90;;;;;;6150699;23;20131;-80
2023/07/15 11:01:07;;;;;;;6.95;2.20;;;25.80;99.90;;;;;;6252233;22;20044;-81
2023/07/15 11:03:36;;;;;;;6.78;2.28;;;25.90;99.90;;;;;;6150455;23;20017;-80
2023/07/15 11:06:02;;;;;;;6.68;2.33;;;26.10;99.90;;;;;;6252252;22;20018;-81
2023/07/15 11:08:29;;;;;;;9.13;2.47;;;26.70;99.90;;;;;;6253086;22;20379;-81
2023/07/15 11:11:00;;;;;;;9.80;2.40;;;27.00;99.90;;;;;;6151073;23;20018;-80
2023/07/15 11:13:26;;;;;;;8.82;2.42;;;27.10;99.90;;;;;;6252174;22;20017;-81
2023/07/15 11:15:52;;;;;;;7.57;2.70;;;27.00;99.20;;;;;;6151174;22;20020;-81
2023/07/15 11:18:23;;;;;;;6.38;2.30;;;27.00;99.90;;;;;;6253385;22;20021;-80
2023/07/15 11:20:52;;;;;;;8.43;2.55;;;26.80;99.90;;;;;;6146867;23;20018;-80
2023/07/15 11:23:18;;;;;;;7.53;2.20;;;26.70;99.90;;;;;;6253602;22;20014;-80
2023/07/15 11:25:45;;;;;;;9.63;2.58;;;26.40;99.90;;;;;;6252427;22;20025;-80
2023/07/15 11:28:11;;;;;;;10.45;2.55;;;26.30;99.90;;;;;;6251247;22;20017;-80
2023/07/15 11:30:50;;;;;;;9.45;2.40;;;26.10;99.90;;;;;;6149978;23;20013;-80
2023/07/15 11:33:16;;;;;;;8.15;2.53;;;25.90;99.90;;;;;;6252956;22;20086;-80
2023/07/15 11:35:43;;;;;;;9.38;2.67;;;25.80;99.90;;;;;;6148891;23;20453;-82
2023/07/15 11:38:14;;;;;;;6.68;2.50;;;25.70;99.90;;;;;;6151022;22;20080;-80
2023/07/15 11:40:56;;;;;;;7.95;2.40;;;25.50;99.90;;;;;;6149204;23;20067;-80
2023/07/15 11:43:30;;;;;;;6.90;2.53;;;25.30;99.90;;;;;;6251757;22;20014;-80
2023/07/15 11:46:01;;;;;;;8.65;2.55;;;25.20;99.90;;;;;;6149440;23;20021;-80
2023/07/15 11:48:36;;;;;;;7.72;2.70;;;25.20;99.90;;;;;;6253382;22;20028;-80
2023/07/15 11:51:06;;;;;;;8.73;2.50;;;25.10;99.90;;;;;;6254984;22;20013;-80
2023/07/15 11:53:38;;;;;;;8.48;2.70;;;25.10;99.90;;;;;;6254264;22;20018;-80
2023/07/15 11:56:35;;;;;;;7.35;2.42;;;25.10;99.90;;;;;;6255022;22;20017;-79
2023/07/15 11:59:36;;;;;;;9.60;3.10;;;25.10;99.90;;;;;;6254280;22;20014;-79
2023/07/15 12:02:19;;;;;;;6.80;2.40;;;25.00;99.90;;;;;;6254379;22;20445;-79
2023/07/15 12:04:51;;;;;;;11.00;2.70;;;25.10;99.90;;;;;;6151102;22;20074;-80
2023/07/15 12:07:22;;;;;;;7.13;2.33;;;25.00;99.90;;;;;;6254825;22;20024;-80
2023/07/15 12:10:22;;;;;;;7.35;2.50;;;25.00;99.90;;;;;;6150240;23;20424;-80
2023/07/15 12:12:48;;;;;;;6.57;2.13;;;25.10;99.90;;;;;;6252702;22;20024;-79
2023/07/15 12:15:34;;;;;;;7.75;2.55;;;25.10;99.90;;;;;;6254788;22;20096;-80
2023/07/15 12:17:59;;;;;;;7.65;2.65;;;25.20;99.90;;;;;;6150582;22;20013;-79
2023/07/15 12:20:25;;;;;;;9.18;2.53;;;25.30;99.90;;;;;;6148321;23;20096;-80
2023/07/15 12:22:51;;;;;;;8.15;2.35;;;25.40;99.90;;;;;;6148524;23;20044;-79
2023/07/15 12:25:16;;;;;;;7.72;2.55;;;25.60;99.90;;;;;;6149975;23;20017;-80
2023/07/15 12:27:42;;;;;;;8.05;2.47;;;25.70;99.90;;;;;;6253514;22;20013;-80
2023/07/15 12:30:08;;;;;;;7.13;2.40;;;25.70;99.90;;;;;;6254814;22;20077;-81
2023/07/15 12:32:34;;;;;;;6.57;2.30;;;25.80;99.90;;;;;;6150441;22;20018;-80
2023/07/15 12:34:59;;;;;;;8.77;2.55;;;25.80;99.90;;;;;;6151118;23;20017;-81
2023/07/15 12:37:25;;;;;;;6.90;2.10;;;25.70;99.90;;;;;;6150083;23;20017;-81
2023/07/15 12:39:50;;;;;;;7.65;2.40;;;25.50;99.90;;;;;;6150776;23;20074;-81
2023/07/15 12:42:16;;;;;;;7.68;2.50;;;25.40;99.90;;;;;;6252235;22;20453;-79
2023/07/15 12:44:42;;;;;;;6.45;2.20;;;25.20;99.90;;;;;;6251165;22;20018;-79
2023/07/15 12:47:07;;;;;;;10.25;2.63;;;25.20;99.90;;;;;;6252140;22;20088;-79
2023/07/15 12:49:33;;;;;;;8.05;2.45;;;25.10;99.90;;;;;;6149763;23;20068;-79
2023/07/15 12:51:59;;;;;;;7.18;2.50;;;25.10;99.90;;;;;;6252086;22;20333;-79
2023/07/15 12:54:34;;;;;;;8.55;2.35;;;25.10;99.90;;;;;;6149584;23;20018;-79
2023/07/15 12:56:59;;;;;;;7.70;2.50;;;25.00;99.90;;;;;;6252712;22;20468;-79
2023/07/15 12:59:41;;;;;;;9.45;2.72;;;25.00;99.90;;;;;;6149044;23;20017;-80